createdAt,value
2024-03-16T00:01:36.097Z,1137.9
2024-03-16T00:03:19.753Z,1131
2024-03-16T00:05:03.497Z,1125.5
2024-03-16T00:06:47.102Z,1121.1
2024-03-16T00:08:30.741Z,1117.4
2024-03-16T00:10:14.514Z,1116.6
2024-03-16T00:11:58.135Z,1115.7
2024-03-16T00:13:41.907Z,1114.2
2024-03-16T00:15:25.495Z,1111.9
2024-03-16T00:17:09.220Z,1110.6
2024-03-16T00:18:53.049Z,1106.5
2024-03-16T00:20:36.749Z,1102.5
2024-03-16T00:22:20.151Z,1099.3
2024-03-16T00:24:04.032Z,1096.7
2024-03-16T00:25:47.948Z,1093.7
2024-03-16T00:27:31.267Z,1091.8
2024-03-16T00:29:15.058Z,1093.4
2024-03-16T00:30:58.716Z,1093.9
2024-03-16T00:32:42.390Z,1087.8
2024-03-16T00:34:26.252Z,1083.8
2024-03-16T00:36:09.949Z,1080.1
2024-03-16T00:37:53.742Z,1074.9
2024-03-16T00:39:37.344Z,1075.7
2024-03-16T00:41:20.951Z,1072.2
2024-03-16T00:43:04.594Z,1069.8
2024-03-16T00:44:48.560Z,1071.4
2024-03-16T00:46:32.055Z,1072.2
2024-03-16T00:48:16.042Z,1068.3
2024-03-16T00:49:59.420Z,1067.6
2024-03-16T00:51:43.364Z,1063.1
2024-03-16T00:53:26.747Z,1061.5
2024-03-16T00:55:10.619Z,1058.6
2024-03-16T00:56:54.298Z,1051.5
2024-03-16T00:58:38.217Z,1047.4
2024-03-16T01:00:21.760Z,1045.5
2024-03-16T01:02:05.311Z,1042.7
2024-03-16T01:03:49.079Z,1039.6
2024-03-16T01:05:32.743Z,1037.9
2024-03-16T01:07:16.452Z,1036.3
2024-03-16T01:09:00.083Z,1035.9
2024-03-16T01:10:43.774Z,1035
2024-03-16T01:12:27.484Z,1031.5
2024-03-16T01:14:11.208Z,1029
2024-03-16T01:15:54.887Z,1028.6
2024-03-16T01:17:38.595Z,1023.5
2024-03-16T01:19:22.362Z,1021.7
2024-03-16T01:21:06.001Z,1016.6
2024-03-16T01:22:49.706Z,1015.1
2024-03-16T01:24:33.389Z,1016.1
2024-03-16T01:26:17.114Z,1014.4
2024-03-16T01:28:00.790Z,1015.1
2024-03-16T01:29:44.499Z,1011.6
2024-03-16T01:31:28.215Z,1010.2
2024-03-16T01:33:12.013Z,1011.4
2024-03-16T01:34:55.836Z,1009
2024-03-16T01:36:39.312Z,1008.7
2024-03-16T01:38:23.024Z,1007.6
2024-03-16T01:40:06.742Z,1003.7
2024-03-16T01:41:50.699Z,1002.2
2024-03-16T01:43:34.122Z,997.7
2024-03-16T01:45:17.938Z,994.3
2024-03-16T01:47:01.658Z,994.1
2024-03-16T01:48:45.240Z,991.5
2024-03-16T01:50:28.987Z,991.8
2024-03-16T01:52:12.942Z,986.4
2024-03-16T01:53:56.453Z,983.1
2024-03-16T01:55:40.040Z,982.8
2024-03-16T01:59:07.866Z,976
2024-03-16T02:00:51.143Z,974.9
2024-03-16T02:02:34.847Z,976.8
2024-03-16T02:04:18.761Z,975.4
2024-03-16T02:06:02.536Z,971.8
2024-03-16T02:07:45.938Z,968.5
2024-03-16T02:09:29.888Z,964.1
2024-03-16T02:11:13.492Z,960.7
2024-03-16T02:12:57.061Z,955.1
2024-03-16T02:14:40.790Z,952.8
2024-03-16T02:16:24.732Z,957.7
2024-03-16T02:18:08.230Z,958.2
2024-03-16T02:19:51.850Z,955.5
2024-03-16T02:21:35.797Z,952.7
2024-03-16T02:23:19.579Z,948.3
2024-03-16T02:25:03.215Z,942.9
2024-03-16T02:26:46.866Z,941.4
2024-03-16T02:28:30.451Z,938.8
2024-03-16T02:30:14.377Z,939.2
2024-03-16T02:31:58.005Z,939.4
2024-03-16T02:33:41.631Z,939.9
2024-03-16T02:35:25.444Z,935.5
2024-03-16T02:37:09.070Z,934.5
2024-03-16T02:38:52.839Z,930
2024-03-16T02:40:36.581Z,927.8
2024-03-16T02:42:20.239Z,927.1
2024-03-16T02:44:03.760Z,927.4
2024-03-16T02:45:47.410Z,927.1
2024-03-16T02:47:31.147Z,927
2024-03-16T02:49:14.973Z,926.5
2024-03-16T02:50:58.723Z,928
2024-03-16T02:52:42.407Z,922.8
2024-03-16T02:54:26.152Z,916
2024-03-16T02:56:09.820Z,914.9
2024-03-16T02:57:53.619Z,911.6
2024-03-16T02:59:37.071Z,907.1
2024-03-16T03:01:20.727Z,904.8
2024-03-16T03:03:04.409Z,903.5
2024-03-16T03:04:48.185Z,896.5
2024-03-16T03:06:31.918Z,892.2
2024-03-16T03:08:15.567Z,892
2024-03-16T03:09:59.209Z,892.8
2024-03-16T03:11:43.010Z,894.5
2024-03-16T03:13:26.593Z,891.8
2024-03-16T03:15:10.306Z,890
2024-03-16T03:16:54.498Z,889.9
2024-03-16T03:18:37.707Z,889.6
2024-03-16T03:20:21.414Z,892.1
2024-03-16T03:22:05.414Z,891.2
2024-03-16T03:23:48.819Z,890.4
2024-03-16T03:25:32.780Z,886.1
2024-03-16T03:27:16.206Z,886.1
2024-03-16T03:29:00.206Z,884.7
2024-03-16T03:30:43.999Z,884.8
2024-03-16T03:32:27.308Z,882.9
2024-03-16T03:34:11.365Z,877.8
2024-03-16T03:35:54.757Z,875.4
2024-03-16T03:37:38.709Z,879.5
2024-03-16T03:39:22.155Z,879.5
2024-03-16T03:41:05.966Z,877.6
2024-03-16T03:42:49.717Z,878.2
2024-03-16T03:44:33.350Z,878.4
2024-03-16T03:46:17.115Z,877.6
2024-03-16T03:48:00.818Z,876.2
2024-03-16T03:49:44.601Z,872.3
2024-03-16T03:51:28.390Z,869.8
2024-03-16T03:53:11.976Z,867
2024-03-16T03:54:55.584Z,866.1
2024-03-16T03:56:39.252Z,864.4
2024-03-16T03:58:22.869Z,864.3
2024-03-16T04:00:06.595Z,864
2024-03-16T04:01:50.266Z,863.3
2024-03-16T04:03:33.996Z,860.6
2024-03-16T04:05:17.681Z,859
2024-03-16T04:07:01.582Z,855.5
2024-03-16T04:08:45.207Z,851
2024-03-16T04:10:28.973Z,848.3
2024-03-16T04:12:12.606Z,846.3
2024-03-16T04:13:56.207Z,843.6
2024-03-16T04:15:39.994Z,838.4
2024-03-16T04:17:23.712Z,836.1
2024-03-16T04:19:07.549Z,836.2
2024-03-16T04:20:51.022Z,838
2024-03-16T04:22:35.017Z,834
2024-03-16T04:24:18.632Z,831.3
2024-03-16T04:26:02.111Z,828.1
2024-03-16T04:27:46.048Z,828.5
2024-03-16T04:29:29.603Z,824.9
2024-03-16T04:31:13.323Z,823
2024-03-16T04:32:57.213Z,820.9
2024-03-16T04:34:40.627Z,821.6
2024-03-16T04:36:24.323Z,825.4
2024-03-16T04:38:08.006Z,828
2024-03-16T04:39:51.717Z,829.1
2024-03-16T04:41:35.442Z,827.3
2024-03-16T04:43:19.110Z,825.4
2024-03-16T04:45:03.059Z,821.7
2024-03-16T04:46:46.809Z,824.1
2024-03-16T04:48:30.272Z,823.1
2024-03-16T04:50:14.030Z,819.1
2024-03-16T04:51:57.955Z,818.6
2024-03-16T04:53:41.527Z,818.3
2024-03-16T04:55:25.039Z,816.8
2024-03-16T04:57:08.911Z,816.1
2024-03-16T04:58:52.524Z,814.9
2024-03-16T05:00:36.358Z,811.6
2024-03-16T05:02:19.956Z,813.4
2024-03-16T05:04:03.662Z,812.8
2024-03-16T05:05:47.497Z,808.8
2024-03-16T05:07:31.000Z,807.9
2024-03-16T05:09:14.862Z,808.5
2024-03-16T05:10:58.314Z,810.5
2024-03-16T05:12:42.263Z,808.7
2024-03-16T05:14:25.907Z,809.5
2024-03-16T05:16:09.632Z,806.6
2024-03-16T05:17:53.217Z,808
2024-03-16T05:19:36.943Z,808.3
2024-03-16T05:21:20.727Z,806.9
2024-03-16T05:23:04.416Z,805.5
2024-03-16T05:24:47.943Z,808
2024-03-16T05:26:31.819Z,807.1
2024-03-16T05:28:15.370Z,807.9
2024-03-16T05:29:59.104Z,809.4
2024-03-16T05:31:42.792Z,806.6
2024-03-16T05:33:26.450Z,804.3
2024-03-16T05:35:10.328Z,802.1
2024-03-16T05:36:53.871Z,800.6
2024-03-16T05:38:37.620Z,797.2
2024-03-16T05:40:21.274Z,794.2
2024-03-16T05:42:05.117Z,793.4
2024-03-16T05:43:48.967Z,793.9
2024-03-16T05:45:32.388Z,794.2
2024-03-16T05:47:16.410Z,794
2024-03-16T05:48:59.773Z,789.1
2024-03-16T05:50:43.860Z,786.5
2024-03-16T05:52:27.202Z,785.6
2024-03-16T05:54:11.294Z,787.7
2024-03-16T05:55:54.712Z,786.8
2024-03-16T05:57:38.643Z,787.6
2024-03-16T05:59:22.123Z,786
2024-03-16T06:01:05.800Z,786.1
2024-03-16T06:02:49.566Z,787.2
2024-03-16T06:04:33.105Z,788.4
2024-03-16T06:06:16.831Z,785.2
2024-03-16T06:08:00.537Z,784.2
2024-03-16T06:09:44.231Z,778.7
2024-03-16T06:11:27.916Z,778.5
2024-03-16T06:13:11.643Z,777.6
2024-03-16T06:14:55.318Z,775.5
2024-03-16T06:16:39.037Z,773.7
2024-03-16T06:18:22.728Z,772.8
2024-03-16T06:20:06.447Z,773.6
2024-03-16T06:21:50.134Z,773.8
2024-03-16T06:23:33.828Z,774
2024-03-16T06:25:17.532Z,771.4
2024-03-16T06:27:01.258Z,772.3
2024-03-16T06:28:44.938Z,797.5
2024-03-16T06:30:28.657Z,832.5
2024-03-16T06:32:12.347Z,835.9
2024-03-16T06:33:56.044Z,827.7
2024-03-16T06:35:39.747Z,834.9
2024-03-16T06:37:23.456Z,838.4
2024-03-16T06:39:07.143Z,839.1
2024-03-16T06:40:50.876Z,838.5
2024-03-16T06:42:34.532Z,837.6
2024-03-16T06:44:18.239Z,836.8
2024-03-16T06:46:01.956Z,833.8
2024-03-16T06:47:45.644Z,833.8
2024-03-16T06:49:29.347Z,831.5
2024-03-16T06:51:13.053Z,830.7
2024-03-16T06:52:56.753Z,825.8
2024-03-16T06:54:40.458Z,822.6
2024-03-16T06:56:24.137Z,822.2
2024-03-16T06:58:07.855Z,822.1
2024-03-16T06:59:51.560Z,819.3
2024-03-16T07:01:35.258Z,817.8
2024-03-16T07:03:18.950Z,815.1
2024-03-16T07:05:02.642Z,813.5
2024-03-16T07:06:46.359Z,810.5
2024-03-16T07:08:30.056Z,803.6
2024-03-16T07:10:13.741Z,799.5
2024-03-16T07:11:57.437Z,800.9
2024-03-16T07:13:41.158Z,800.7
2024-03-16T07:15:24.933Z,802.5
2024-03-16T07:17:08.539Z,802.3
2024-03-16T07:18:52.260Z,802.6
2024-03-16T07:20:35.966Z,803.9
2024-03-16T07:22:19.666Z,802.1
2024-03-16T07:24:03.347Z,799.3
2024-03-16T07:25:47.068Z,801.2
2024-03-16T07:27:30.755Z,800.7
2024-03-16T07:29:14.482Z,800.7
2024-03-16T07:30:58.161Z,798.4
2024-03-16T07:32:41.872Z,792.8
2024-03-16T07:34:25.568Z,791.2
2024-03-16T07:36:09.265Z,791.5
2024-03-16T07:37:52.965Z,790.2
2024-03-16T07:39:36.668Z,788.5
2024-03-16T07:41:20.364Z,785.9
2024-03-16T07:43:04.083Z,783
2024-03-16T07:44:47.765Z,781.6
2024-03-16T07:46:31.478Z,781.5
2024-03-16T07:48:15.192Z,780.6
2024-03-16T07:49:58.863Z,783
2024-03-16T07:51:42.597Z,786.6
2024-03-16T07:53:26.289Z,789.6
2024-03-16T07:55:09.993Z,789
2024-03-16T07:56:53.691Z,787.2
2024-03-16T07:58:37.403Z,785
2024-03-16T08:00:21.145Z,782.5
2024-03-16T08:02:04.812Z,780.9
2024-03-16T08:03:48.513Z,778.8
2024-03-16T08:05:32.203Z,777.5
2024-03-16T08:07:15.895Z,774.4
2024-03-16T08:08:59.598Z,773.6
2024-03-16T08:10:43.301Z,775.1
2024-03-16T08:12:27.099Z,775.3
2024-03-16T08:14:10.684Z,775.3
2024-03-16T08:15:54.412Z,775.1
2024-03-16T08:17:38.114Z,775.7
2024-03-16T08:19:21.821Z,777
2024-03-16T08:21:05.524Z,775.6
2024-03-16T08:22:49.314Z,775.8
2024-03-16T08:24:32.912Z,778.8
2024-03-16T08:26:16.626Z,780.3
2024-03-16T08:28:00.328Z,780.1
2024-03-16T08:29:44.035Z,783.5
2024-03-16T08:31:27.736Z,784.7
2024-03-16T08:33:11.433Z,781.3
2024-03-16T08:34:55.146Z,778.2
2024-03-16T08:36:38.872Z,783.3
2024-03-16T08:38:22.537Z,790.4
2024-03-16T08:40:06.264Z,796.9
2024-03-16T08:41:49.970Z,800
2024-03-16T08:43:33.678Z,802.7
2024-03-16T08:45:17.365Z,804.1
2024-03-16T08:47:01.069Z,800.8
2024-03-16T08:48:44.763Z,797.6
2024-03-16T08:50:28.464Z,795.8
2024-03-16T08:52:12.188Z,797.8
2024-03-16T08:53:55.884Z,796.9
2024-03-16T08:55:39.593Z,795.7
2024-03-16T08:57:23.290Z,797.2
2024-03-16T08:59:06.992Z,801.1
2024-03-16T09:00:50.695Z,797.3
2024-03-16T09:02:34.392Z,794
2024-03-16T09:04:18.083Z,790.8
2024-03-16T09:06:01.793Z,793.8
2024-03-16T09:07:45.490Z,797
2024-03-16T09:09:29.198Z,798.5
2024-03-16T09:11:12.900Z,802.4
2024-03-16T09:12:56.604Z,807.5
2024-03-16T09:14:40.306Z,810
2024-03-16T09:16:24.014Z,811.3
2024-03-16T09:18:07.971Z,813.8
2024-03-16T09:19:51.409Z,815.9
2024-03-16T09:21:35.156Z,818
2024-03-16T09:23:18.819Z,819.8
2024-03-16T09:25:02.541Z,825
2024-03-16T09:26:46.209Z,825.1
2024-03-16T09:28:29.942Z,825.6
2024-03-16T09:30:13.638Z,826.8
2024-03-16T09:31:57.345Z,821.8
2024-03-16T09:33:41.049Z,814.5
2024-03-16T09:35:24.751Z,808.6
2024-03-16T09:37:08.446Z,804.7
2024-03-16T09:38:52.154Z,801.3
2024-03-16T09:40:35.834Z,799.2
2024-03-16T09:42:19.551Z,798.8
2024-03-16T09:44:03.269Z,801.1
2024-03-16T09:45:46.966Z,804.6
2024-03-16T09:47:30.657Z,806.2
2024-03-16T09:49:14.351Z,808.2
2024-03-16T09:50:58.053Z,805.2
2024-03-16T09:52:41.768Z,801.1
2024-03-16T09:54:25.473Z,798.6
2024-03-16T09:56:09.173Z,798
2024-03-16T09:57:52.857Z,796.2
2024-03-16T09:59:36.578Z,797.1
2024-03-16T10:01:20.278Z,795.7
2024-03-16T10:03:03.963Z,793.3
2024-03-16T10:04:47.689Z,791.6
2024-03-16T10:06:31.375Z,788.8
2024-03-16T10:08:15.079Z,787.2
2024-03-16T10:09:58.785Z,789.4
2024-03-16T10:11:42.487Z,793.6
2024-03-16T10:13:26.181Z,794.5
2024-03-16T10:15:09.891Z,792.6
2024-03-16T10:16:53.575Z,789.8
2024-03-16T10:18:37.299Z,787.4
2024-03-16T10:20:21.004Z,785.4
2024-03-16T10:22:04.692Z,782.8
2024-03-16T10:23:48.411Z,782.9
2024-03-16T10:25:32.107Z,785.4
2024-03-16T10:27:15.785Z,787.2
2024-03-16T10:28:59.481Z,788.7
2024-03-16T10:30:43.211Z,786.3
2024-03-16T10:32:26.889Z,784.1
2024-03-16T10:34:10.618Z,786.1
2024-03-16T10:35:54.313Z,784.2
2024-03-16T10:37:38.020Z,781.6
2024-03-16T10:39:21.722Z,778.3
2024-03-16T10:41:05.408Z,778.1
2024-03-16T10:42:49.117Z,776.8
2024-03-16T10:44:32.813Z,775.7
2024-03-16T10:46:16.532Z,776.7
2024-03-16T10:48:00.231Z,777.3
2024-03-16T10:49:43.942Z,775.3
2024-03-16T10:51:27.638Z,774.5
2024-03-16T10:53:11.345Z,773.3
2024-03-16T10:54:55.016Z,773.2
2024-03-16T10:56:38.722Z,775.8
2024-03-16T10:58:22.443Z,777
2024-03-16T11:00:06.139Z,775
2024-03-16T11:01:49.839Z,773.2
2024-03-16T11:03:33.598Z,773.4
2024-03-16T11:05:17.241Z,770.3
2024-03-16T11:07:01.032Z,766.5
2024-03-16T11:08:44.648Z,764.5
2024-03-16T11:10:28.340Z,763.3
2024-03-16T11:12:12.055Z,762.3
2024-03-16T11:13:55.768Z,760.6
2024-03-16T11:15:39.440Z,763.5
2024-03-16T11:17:23.377Z,764.8
2024-03-16T11:20:50.547Z,763.5
2024-03-16T11:22:34.388Z,765.8
2024-03-16T11:24:18.184Z,769.5
2024-03-16T11:26:01.794Z,771.6
2024-03-16T11:27:45.728Z,772.4
2024-03-16T11:29:29.260Z,776.6
2024-03-16T11:31:12.887Z,785.9
2024-03-16T11:32:56.573Z,789.8
2024-03-16T11:34:40.162Z,789.2
2024-03-16T11:36:23.868Z,790.7
2024-03-16T11:38:07.590Z,792.7
2024-03-16T11:39:51.255Z,795.2
2024-03-16T11:41:34.970Z,797.7
2024-03-16T11:43:18.673Z,793.7
2024-03-16T11:45:02.390Z,796
2024-03-16T11:46:46.077Z,797.6
2024-03-16T11:48:29.770Z,800.7
2024-03-16T11:50:13.479Z,804.9
2024-03-16T11:51:57.197Z,809
2024-03-16T11:53:40.884Z,807.9
2024-03-16T11:55:24.589Z,809.3
2024-03-16T11:57:08.288Z,812.3
2024-03-16T11:58:52.227Z,812.7
2024-03-16T12:00:35.783Z,812.8
2024-03-16T12:02:19.381Z,814.1
2024-03-16T12:04:03.085Z,814.2
2024-03-16T12:05:47.035Z,812.4
2024-03-16T12:07:30.614Z,809.8
2024-03-16T12:09:14.181Z,811.1
2024-03-16T12:10:58.044Z,810
2024-03-16T12:12:41.595Z,817.7
2024-03-16T12:14:25.290Z,833.3
2024-03-16T12:16:08.978Z,848.5
2024-03-16T12:17:52.690Z,880.4
2024-03-16T12:19:36.385Z,879.6
2024-03-16T12:21:20.092Z,882.7
2024-03-16T12:23:03.787Z,881.8
2024-03-16T12:24:47.494Z,880
2024-03-16T12:26:31.202Z,866.4
2024-03-16T12:28:14.893Z,831.4
2024-03-16T12:29:58.586Z,825.7
2024-03-16T12:31:42.288Z,829.5
2024-03-16T12:33:26.001Z,830.7
2024-03-16T12:35:09.699Z,837.3
2024-03-16T12:36:53.493Z,899.7
2024-03-16T12:38:37.205Z,913.7
2024-03-16T12:40:20.806Z,916.8
2024-03-16T12:42:04.771Z,920.3
2024-03-16T12:43:48.512Z,920.6
2024-03-16T12:45:32.112Z,931.6
2024-03-16T12:47:15.672Z,953.4
2024-03-16T12:48:59.305Z,959.6
2024-03-16T12:50:43.386Z,958.1
2024-03-16T12:52:27.086Z,957.8
2024-03-16T12:54:10.545Z,952.7
2024-03-16T12:55:54.236Z,949
2024-03-16T12:57:37.929Z,946.8
2024-03-16T12:59:21.725Z,956.8
2024-03-16T13:01:05.326Z,967.5
2024-03-16T13:02:49.169Z,969.2
2024-03-16T13:04:32.756Z,964.9
2024-03-16T13:06:16.432Z,959
2024-03-16T13:08:00.315Z,955
2024-03-16T13:09:43.819Z,955.2
2024-03-16T13:11:27.626Z,965.1
2024-03-16T13:13:11.387Z,971.4
2024-03-16T13:14:55.117Z,984
2024-03-16T13:16:38.762Z,990.8
2024-03-16T13:18:22.490Z,978.7
2024-03-16T13:20:06.247Z,963.3
2024-03-16T13:21:50.128Z,947.3
2024-03-16T13:23:33.352Z,935.7
2024-03-16T13:25:17.034Z,929.3
2024-03-16T13:27:01.005Z,925.4
2024-03-16T13:28:44.669Z,923
2024-03-16T13:30:28.397Z,916.9
2024-03-16T13:32:11.851Z,904.9
2024-03-16T13:33:55.590Z,870.1
2024-03-16T13:35:39.518Z,832.4
2024-03-16T13:37:23.086Z,829.6
2024-03-16T13:39:06.955Z,834.1
2024-03-16T13:40:50.563Z,837.2
2024-03-16T13:42:34.452Z,837
2024-03-16T13:44:18.082Z,834.7
2024-03-16T13:46:01.513Z,830.9
2024-03-16T13:47:45.466Z,833.4
2024-03-16T13:49:29.201Z,836.2
2024-03-16T13:51:12.819Z,840.8
2024-03-16T13:52:56.549Z,846.6
2024-03-16T13:54:40.366Z,847
2024-03-16T13:56:23.975Z,845.8
2024-03-16T13:58:07.647Z,843.7
2024-03-16T13:59:51.249Z,843.9
2024-03-16T14:01:34.972Z,843.4
2024-03-16T14:03:18.449Z,841
2024-03-16T14:05:02.463Z,843.1
2024-03-16T14:06:46.155Z,843.8
2024-03-16T14:08:29.564Z,840.8
2024-03-16T14:10:13.555Z,837
2024-03-16T14:11:56.953Z,840.9
2024-03-16T14:13:41.090Z,842.6
2024-03-16T14:15:24.568Z,842.4
2024-03-16T14:17:08.336Z,841
2024-03-16T14:18:51.971Z,839.8
2024-03-16T14:20:35.711Z,841.7
2024-03-16T14:22:19.472Z,842.6
2024-03-16T14:24:02.860Z,842.1
2024-03-16T14:25:46.868Z,838.1
2024-03-16T14:27:30.522Z,838
2024-03-16T14:29:14.172Z,837.6
2024-03-16T14:30:58.024Z,832.1
2024-03-16T14:32:41.756Z,831.4
2024-03-16T14:34:25.389Z,830.6
2024-03-16T14:36:08.898Z,830
2024-03-16T14:37:52.798Z,832.4
2024-03-16T14:39:36.549Z,836.3
2024-03-16T14:41:20.221Z,834
2024-03-16T14:43:04.077Z,826.8
2024-03-16T14:44:47.694Z,816.4
2024-03-16T14:46:31.214Z,811.8
2024-03-16T14:48:15.024Z,810.5
2024-03-16T14:49:58.728Z,811.1
2024-03-16T14:51:42.113Z,813.1
2024-03-16T14:53:26.117Z,813.8
2024-03-16T14:55:09.832Z,813.3
2024-03-16T14:56:53.212Z,806.6
2024-03-16T14:58:36.940Z,800.2
2024-03-16T15:00:20.976Z,789.1
2024-03-16T15:02:04.613Z,779.6
2024-03-16T15:03:48.159Z,772.9
2024-03-16T15:05:32.118Z,770.7
2024-03-16T15:07:15.761Z,772
2024-03-16T15:08:59.453Z,771
2024-03-16T15:10:43.179Z,771.9
2024-03-16T15:12:26.813Z,771.4
2024-03-16T15:14:10.234Z,773.6
2024-03-16T15:15:54.381Z,775
2024-03-16T15:19:21.587Z,773.4
2024-03-16T15:21:05.340Z,775.7
2024-03-16T15:22:49.043Z,778.1
2024-03-16T15:24:32.837Z,780.4
2024-03-16T15:26:16.464Z,781.6
2024-03-16T15:28:03.837Z,782.4
2024-03-16T15:29:43.662Z,779.5
2024-03-16T15:31:27.459Z,772.9
2024-03-16T15:33:10.972Z,763.8
2024-03-16T15:34:54.676Z,755.5
2024-03-16T15:36:38.671Z,748.1
2024-03-16T15:38:22.340Z,740.8
2024-03-16T15:40:05.758Z,731.2
2024-03-16T15:41:49.839Z,718.8
2024-03-16T15:43:33.304Z,706.9
2024-03-16T15:45:17.226Z,695.3
2024-03-16T15:47:00.752Z,688.3
2024-03-16T15:48:44.641Z,680.8
2024-03-16T15:50:28.112Z,676.4
2024-03-16T15:52:11.832Z,674.9
2024-03-16T15:53:55.487Z,673.5
2024-03-16T15:55:39.230Z,676.5
2024-03-16T15:57:23.009Z,677.8
2024-03-16T15:59:06.524Z,678
2024-03-16T16:00:50.254Z,680.4
2024-03-16T16:02:33.927Z,682.7
2024-03-16T16:04:17.606Z,683.9
2024-03-16T16:06:01.432Z,686.8
2024-03-16T16:07:45.052Z,692.4
2024-03-16T16:09:28.870Z,699.5
2024-03-16T16:11:12.433Z,703.6
2024-03-16T16:12:56.277Z,706.8
2024-03-16T16:14:39.823Z,709.2
2024-03-16T16:16:23.522Z,713
2024-03-16T16:18:07.224Z,717.4
2024-03-16T16:19:50.947Z,720.5
2024-03-16T16:21:34.624Z,731.3
2024-03-16T16:23:18.612Z,743.6
2024-03-16T16:25:02.042Z,749.6
2024-03-16T16:26:45.753Z,747.4
2024-03-16T16:28:29.780Z,752.3
2024-03-16T16:30:13.510Z,761.3
2024-03-16T16:31:57.027Z,763.9
2024-03-16T16:33:40.649Z,766.1
2024-03-16T16:35:24.237Z,767.9
2024-03-16T16:37:08.106Z,769.8
2024-03-16T16:38:51.705Z,772.5
2024-03-16T16:40:35.387Z,777.5
2024-03-16T16:42:19.058Z,784.8
2024-03-16T16:44:02.731Z,789.2
2024-03-16T16:45:46.497Z,790.5
2024-03-16T16:47:30.188Z,791.5
2024-03-16T16:49:13.875Z,790.7
2024-03-16T16:50:57.554Z,791.9
2024-03-16T16:52:41.266Z,795.4
2024-03-16T16:54:24.964Z,800.3
2024-03-16T16:56:08.671Z,800
2024-03-16T16:57:52.371Z,802.9
2024-03-16T16:59:36.068Z,806.1
2024-03-16T17:01:19.781Z,809.6
2024-03-16T17:03:03.479Z,812.9
2024-03-16T17:04:47.282Z,816.1
2024-03-16T17:06:30.865Z,819.6
2024-03-16T17:08:14.551Z,821.8
2024-03-16T17:09:58.271Z,827.8
2024-03-16T17:11:42.068Z,837.3
2024-03-16T17:13:25.680Z,844.5
2024-03-16T17:15:09.442Z,848.2
2024-03-16T17:16:53.195Z,855.6
2024-03-16T17:18:36.788Z,872
2024-03-16T17:20:20.488Z,889.2
2024-03-16T17:22:04.182Z,899.6
2024-03-16T17:23:47.889Z,910
2024-03-16T17:25:31.589Z,909.6
2024-03-16T17:27:15.261Z,935.7
2024-03-16T17:28:59.176Z,996.5
2024-03-16T17:30:42.715Z,1010.8
2024-03-16T17:32:26.408Z,1023.2
2024-03-16T17:34:10.076Z,1031
2024-03-16T17:35:53.804Z,1037.4
2024-03-16T17:37:37.495Z,1041.5
2024-03-16T17:39:21.204Z,1046.9
2024-03-16T17:41:04.884Z,1054.1
2024-03-16T17:42:48.611Z,1057.8
2024-03-16T17:44:32.546Z,1057.6
2024-03-16T17:46:16.026Z,1048.2
2024-03-16T17:47:59.891Z,1038.8
2024-03-16T17:49:43.425Z,1039.1
2024-03-16T17:51:27.222Z,1083.7
2024-03-16T17:53:10.831Z,1112
2024-03-16T17:54:54.531Z,1124.6
2024-03-16T17:56:38.225Z,1141.9
2024-03-16T17:58:21.917Z,1152.7
2024-03-16T18:00:05.620Z,1153.7
2024-03-16T18:01:49.362Z,1149.7
2024-03-16T18:03:33.076Z,1151.5
2024-03-16T18:05:16.718Z,1151.8
2024-03-16T18:07:00.620Z,1156.2
2024-03-16T18:08:44.132Z,1160
2024-03-16T18:10:27.808Z,1158
2024-03-16T18:12:11.502Z,1159.7
2024-03-16T18:13:55.242Z,1166.7
2024-03-16T18:15:38.938Z,1170.6
2024-03-16T18:17:22.613Z,1176.5
2024-03-16T18:19:06.315Z,1181.3
2024-03-16T18:20:50.030Z,1179.7
2024-03-16T18:22:33.735Z,1187.3
2024-03-16T18:24:17.413Z,1188.8
2024-03-16T18:26:01.124Z,1187
2024-03-16T18:27:44.811Z,1190
2024-03-16T18:29:28.539Z,1186.5
2024-03-16T18:31:12.214Z,1183.2
2024-03-16T18:32:55.928Z,1183.9
2024-03-16T18:34:39.634Z,1187.5
2024-03-16T18:38:07.040Z,1183.1
2024-03-16T18:39:50.739Z,1182.5
2024-03-16T18:41:34.526Z,1180.4
2024-03-16T18:43:18.153Z,1177.5
2024-03-16T18:45:01.854Z,1174.2
2024-03-16T18:46:45.551Z,1156.8
2024-03-16T18:48:29.264Z,1130.4
2024-03-16T18:50:13.028Z,1108.6
2024-03-16T18:51:56.681Z,1104.6
2024-03-16T18:53:40.352Z,1102.8
2024-03-16T18:55:24.058Z,1104.4
2024-03-16T18:57:07.751Z,1103.6
2024-03-16T18:58:51.463Z,1110.1
2024-03-16T19:00:35.155Z,1117.7
2024-03-16T19:02:18.842Z,1122.1
2024-03-16T19:04:02.592Z,1126.7
2024-03-16T19:05:46.273Z,1132.2
2024-03-16T19:07:29.971Z,1138.3
2024-03-16T19:09:13.658Z,1143.3
2024-03-16T19:10:57.363Z,1147.9
2024-03-16T19:12:41.079Z,1151.3
2024-03-16T19:14:24.772Z,1154.1
2024-03-16T19:16:08.475Z,1152.7
2024-03-16T19:17:52.178Z,1155.9
2024-03-16T19:19:35.956Z,1159.6
2024-03-16T19:21:19.578Z,1158.8
2024-03-16T19:23:03.286Z,1157.9
2024-03-16T19:24:46.963Z,1155.7
2024-03-16T19:26:30.695Z,1153.3
2024-03-16T19:28:14.389Z,1153
2024-03-16T19:29:58.092Z,1152.8
2024-03-16T19:31:41.798Z,1150.3
2024-03-16T19:33:25.500Z,1153.7
2024-03-16T19:35:09.194Z,1156.3
2024-03-16T19:36:52.953Z,1152
2024-03-16T19:38:36.603Z,1152.1
2024-03-16T19:40:20.335Z,1152
2024-03-16T19:42:04.025Z,1150.4
2024-03-16T19:43:47.718Z,1150.3
2024-03-16T19:45:31.439Z,1152.1
2024-03-16T19:47:15.117Z,1152.8
2024-03-16T19:48:58.836Z,1151.6
2024-03-16T19:50:42.528Z,1149.7
2024-03-16T19:52:26.224Z,1149.1
2024-03-16T19:54:09.932Z,1147.9
2024-03-16T19:55:53.627Z,1144.5
2024-03-16T19:57:37.318Z,1145.8
2024-03-16T19:59:21.051Z,1149.3
2024-03-16T20:01:04.729Z,1149.1
2024-03-16T20:02:48.448Z,1148.3
2024-03-16T20:04:32.140Z,1148.2
2024-03-16T20:06:15.821Z,1146
2024-03-16T20:07:59.543Z,1150.7
2024-03-16T20:09:43.258Z,1150
2024-03-16T20:11:26.953Z,1153.7
2024-03-16T20:13:10.651Z,1146.1
2024-03-16T20:14:54.353Z,1136.4
2024-03-16T20:16:38.053Z,1128.6
2024-03-16T20:18:21.744Z,1129
2024-03-16T20:20:05.434Z,1138.2
2024-03-16T20:21:49.189Z,1144.9
2024-03-16T20:23:32.870Z,1150.8
2024-03-16T20:25:16.552Z,1158.1
2024-03-16T20:27:00.272Z,1165.2
2024-03-16T20:28:43.975Z,1167
2024-03-16T20:30:27.661Z,1163.8
2024-03-16T20:32:11.478Z,1164.4
2024-03-16T20:33:55.118Z,1162.5
2024-03-16T20:35:38.778Z,1159.6
2024-03-16T20:37:22.472Z,1158.1
2024-03-16T20:39:06.183Z,1162.1
2024-03-16T20:40:49.872Z,1166.8
2024-03-16T20:42:33.571Z,1174.3
2024-03-16T20:44:17.360Z,1181
2024-03-16T20:46:00.978Z,1187.1
2024-03-16T20:47:44.660Z,1211.3
2024-03-16T20:49:28.366Z,1235.5
2024-03-16T20:51:12.091Z,1235.2
2024-03-16T20:52:55.782Z,1240.7
2024-03-16T20:54:39.492Z,1245.4
2024-03-16T20:56:23.207Z,1251.5
2024-03-16T20:58:06.886Z,1257.3
2024-03-16T20:59:50.589Z,1259.4
2024-03-16T21:01:34.300Z,1264.9
2024-03-16T21:03:17.995Z,1271.3
2024-03-16T21:05:01.722Z,1276.9
2024-03-16T21:06:45.388Z,1278.2
2024-03-16T21:08:29.111Z,1276.4
2024-03-16T21:10:12.813Z,1274.4
2024-03-16T21:11:56.495Z,1275.5
2024-03-16T21:13:40.210Z,1271.9
2024-03-16T21:15:23.944Z,1273.5
2024-03-16T21:17:07.619Z,1274.4
2024-03-16T21:18:51.362Z,1276.5
2024-03-16T21:20:35.008Z,1278.9
2024-03-16T21:22:18.725Z,1280.6
2024-03-16T21:24:02.396Z,1283.7
2024-03-16T21:25:46.123Z,1282.8
2024-03-16T21:27:29.801Z,1283.9
2024-03-16T21:29:13.516Z,1287.7
2024-03-16T21:30:57.212Z,1291.7
2024-03-16T21:32:40.976Z,1289.3
2024-03-16T21:34:24.618Z,1287.4
2024-03-16T21:36:08.324Z,1283.6
2024-03-16T21:37:52.041Z,1282.4
2024-03-16T21:39:35.729Z,1287
2024-03-16T21:41:19.434Z,1287.4
2024-03-16T21:43:03.121Z,1286.3
2024-03-16T21:44:46.828Z,1287.6
2024-03-16T21:46:30.537Z,1290.8
2024-03-16T21:48:14.242Z,1291.2
2024-03-16T21:49:57.937Z,1288.5
2024-03-16T21:51:41.629Z,1283.3
2024-03-16T21:53:25.339Z,1284.6
2024-03-16T21:55:09.031Z,1286.4
2024-03-16T21:56:52.763Z,1286.7
2024-03-16T21:58:36.434Z,1285.4
2024-03-16T22:00:20.153Z,1283.7
2024-03-16T22:02:03.863Z,1283.8
2024-03-16T22:03:47.554Z,1280.5
2024-03-16T22:05:31.244Z,1281.5
2024-03-16T22:07:14.971Z,1278.9
2024-03-16T22:08:58.654Z,1265
2024-03-16T22:10:42.357Z,1260
2024-03-16T22:12:26.058Z,1260.2
2024-03-16T22:14:09.772Z,1262.4
2024-03-16T22:15:53.659Z,1260.5
2024-03-16T22:17:37.153Z,1261.2
2024-03-16T22:19:20.874Z,1266.2